sensor_id;sensor_type;location;lat;lon;timestamp;P1;durP1;ratioP1;P2;durP2;ratioP2
71464;SDS011;59274;49.874;9.154;2023-12-20T00:00:51;4.23;;;1.97;;
71464;SDS011;59274;49.874;9.154;2023-12-20T00:03:17;3.43;;;1.67;;
71464;SDS011;59274;49.874;9.154;2023-12-20T00:05:42;4.17;;;1.67;;
71464;SDS011;59274;49.874;9.154;2023-12-20T00:08:08;4.07;;;1.80;;
71464;SDS011;59274;49.874;9.154;2023-12-20T00:10:33;4.13;;;1.53;;
71464;SDS011;59274;49.874;9.154;2023-12-20T00:12:59;4.63;;;1.63;;
71464;SDS011;59274;49.874;9.154;2023-12-20T00:15:24;3.57;;;1.50;;
71464;SDS011;59274;49.874;9.154;2023-12-20T00:17:50;3.83;;;1.63;;
71464;SDS011;59274;49.874;9.154;2023-12-20T00:20:15;4.70;;;1.83;;
71464;SDS011;59274;49.874;9.154;2023-12-20T00:22:41;3.25;;;1.55;;
71464;SDS011;59274;49.874;9.154;2023-12-20T00:25:06;3.90;;;1.67;;
71464;SDS011;59274;49.874;9.154;2023-12-20T00:27:32;3.80;;;1.70;;
71464;SDS011;59274;49.874;9.154;2023-12-20T00:29:57;4.03;;;1.60;;
71464;SDS011;59274;49.874;9.154;2023-12-20T00:32:23;3.22;;;1.50;;
71464;SDS011;59274;49.874;9.154;2023-12-20T00:34:48;3.47;;;1.58;;
71464;SDS011;59274;49.874;9.154;2023-12-20T00:37:14;2.93;;;1.30;;
71464;SDS011;59274;49.874;9.154;2023-12-20T00:39:39;4.17;;;1.50;;
71464;SDS011;59274;49.874;9.154;2023-12-20T00:42:05;3.87;;;1.27;;
71464;SDS011;59274;49.874;9.154;2023-12-20T00:44:30;3.53;;;1.40;;
71464;SDS011;59274;49.874;9.154;2023-12-20T00:46:55;2.37;;;1.23;;
71464;SDS011;59274;49.874;9.154;2023-12-20T00:49:21;2.87;;;1.20;;
71464;SDS011;59274;49.874;9.154;2023-12-20T00:51:46;3.93;;;1.50;;
71464;SDS011;59274;49.874;9.154;2023-12-20T00:54:13;3.40;;;1.63;;
71464;SDS011;59274;49.874;9.154;2023-12-20T00:56:38;2.80;;;1.30;;
71464;SDS011;59274;49.874;9.154;2023-12-20T00:59:04;3.07;;;1.40;;
71464;SDS011;59274;49.874;9.154;2023-12-20T01:01:29;3.05;;;1.25;;
71464;SDS011;59274;49.874;9.154;2023-12-20T01:03:58;2.47;;;1.37;;
71464;SDS011;59274;49.874;9.154;2023-12-20T01:06:24;4.72;;;1.33;;
71464;SDS011;59274;49.874;9.154;2023-12-20T01:08:49;2.53;;;1.20;;
71464;SDS011;59274;49.874;9.154;2023-12-20T01:11:14;2.50;;;1.40;;
71464;SDS011;59274;49.874;9.154;2023-12-20T01:13:40;3.35;;;1.40;;
71464;SDS011;59274;49.874;9.154;2023-12-20T01:16:05;2.90;;;1.25;;
71464;SDS011;59274;49.874;9.154;2023-12-20T01:18:31;2.33;;;1.10;;
71464;SDS011;59274;49.874;9.154;2023-12-20T01:21:00;2.60;;;1.30;;
71464;SDS011;59274;49.874;9.154;2023-12-20T01:23:28;2.33;;;1.00;;
71464;SDS011;59274;49.874;9.154;2023-12-20T01:25:53;2.50;;;1.20;;
71464;SDS011;59274;49.874;9.154;2023-12-20T01:28:19;2.67;;;1.25;;
71464;SDS011;59274;49.874;9.154;2023-12-20T01:30:44;1.93;;;1.03;;
71464;SDS011;59274;49.874;9.154;2023-12-20T01:33:10;1.77;;;0.90;;
71464;SDS011;59274;49.874;9.154;2023-12-20T01:35:35;2.22;;;1.15;;
71464;SDS011;59274;49.874;9.154;2023-12-20T01:38:01;3.00;;;1.10;;
71464;SDS011;59274;49.874;9.154;2023-12-20T01:40:26;2.80;;;1.20;;
71464;SDS011;59274;49.874;9.154;2023-12-20T01:43:01;2.60;;;1.20;;
71464;SDS011;59274;49.874;9.154;2023-12-20T01:45:30;1.48;;;0.85;;
71464;SDS011;59274;49.874;9.154;2023-12-20T01:47:56;1.60;;;0.97;;
71464;SDS011;59274;49.874;9.154;2023-12-20T01:50:23;2.40;;;1.20;;
71464;SDS011;59274;49.874;9.154;2023-12-20T01:52:49;2.00;;;1.00;;
71464;SDS011;59274;49.874;9.154;2023-12-20T01:55:17;3.35;;;1.13;;
71464;SDS011;59274;49.874;9.154;2023-12-20T01:57:46;2.45;;;1.05;;
71464;SDS011;59274;49.874;9.154;2023-12-20T02:00:12;1.77;;;0.95;;
71464;SDS011;59274;49.874;9.154;2023-12-20T02:02:40;2.38;;;1.02;;
71464;SDS011;59274;49.874;9.154;2023-12-20T02:05:06;1.83;;;1.10;;
71464;SDS011;59274;49.874;9.154;2023-12-20T02:07:32;2.50;;;1.02;;
71464;SDS011;59274;49.874;9.154;2023-12-20T02:10:00;1.98;;;1.00;;
71464;SDS011;59274;49.874;9.154;2023-12-20T02:12:26;1.50;;;0.90;;
71464;SDS011;59274;49.874;9.154;2023-12-20T02:14:51;3.47;;;1.10;;
71464;SDS011;59274;49.874;9.154;2023-12-20T02:17:17;2.20;;;1.07;;
71464;SDS011;59274;49.874;9.154;2023-12-20T02:19:43;1.98;;;1.10;;
71464;SDS011;59274;49.874;9.154;2023-12-20T02:22:09;3.10;;;1.10;;
71464;SDS011;59274;49.874;9.154;2023-12-20T02:24:37;3.15;;;1.20;;
71464;SDS011;59274;49.874;9.154;2023-12-20T02:27:03;1.85;;;1.00;;
71464;SDS011;59274;49.874;9.154;2023-12-20T02:29:31;2.33;;;1.10;;
71464;SDS011;59274;49.874;9.154;2023-12-20T02:31:58;2.67;;;1.10;;
71464;SDS011;59274;49.874;9.154;2023-12-20T02:34:23;1.40;;;0.90;;
71464;SDS011;59274;49.874;9.154;2023-12-20T02:36:49;2.53;;;1.00;;
71464;SDS011;59274;49.874;9.154;2023-12-20T02:39:14;1.93;;;0.90;;
71464;SDS011;59274;49.874;9.154;2023-12-20T02:41:40;2.17;;;1.10;;
71464;SDS011;59274;49.874;9.154;2023-12-20T02:44:05;3.83;;;1.00;;
71464;SDS011;59274;49.874;9.154;2023-12-20T02:46:30;2.67;;;1.10;;
71464;SDS011;59274;49.874;9.154;2023-12-20T02:48:56;2.67;;;1.20;;
71464;SDS011;59274;49.874;9.154;2023-12-20T02:51:21;2.13;;;0.90;;
71464;SDS011;59274;49.874;9.154;2023-12-20T02:53:47;1.35;;;0.77;;
71464;SDS011;59274;49.874;9.154;2023-12-20T02:56:12;1.43;;;0.90;;
71464;SDS011;59274;49.874;9.154;2023-12-20T02:58:39;1.83;;;0.82;;
71464;SDS011;59274;49.874;9.154;2023-12-20T03:01:05;1.93;;;1.20;;
71464;SDS011;59274;49.874;9.154;2023-12-20T03:03:31;2.17;;;0.90;;
71464;SDS011;59274;49.874;9.154;2023-12-20T03:05:56;2.60;;;1.00;;
71464;SDS011;59274;49.874;9.154;2023-12-20T03:08:22;2.10;;;1.00;;
71464;SDS011;59274;49.874;9.154;2023-12-20T03:10:47;2.38;;;1.20;;
71464;SDS011;59274;49.874;9.154;2023-12-20T03:13:13;1.93;;;0.97;;
71464;SDS011;59274;49.874;9.154;2023-12-20T03:15:38;1.60;;;0.90;;
71464;SDS011;59274;49.874;9.154;2023-12-20T03:18:04;1.43;;;0.77;;
71464;SDS011;59274;49.874;9.154;2023-12-20T03:20:29;2.80;;;1.00;;
71464;SDS011;59274;49.874;9.154;2023-12-20T03:22:58;1.98;;;1.13;;
71464;SDS011;59274;49.874;9.154;2023-12-20T03:25:23;2.50;;;1.00;;
71464;SDS011;59274;49.874;9.154;2023-12-20T03:27:49;1.75;;;0.88;;
71464;SDS011;59274;49.874;9.154;2023-12-20T03:30:14;2.17;;;1.00;;
71464;SDS011;59274;49.874;9.154;2023-12-20T03:32:39;1.77;;;0.97;;
71464;SDS011;59274;49.874;9.154;2023-12-20T03:35:05;1.57;;;0.90;;
71464;SDS011;59274;49.874;9.154;2023-12-20T03:37:31;2.80;;;1.08;;
71464;SDS011;59274;49.874;9.154;2023-12-20T03:39:56;2.77;;;1.00;;
71464;SDS011;59274;49.874;9.154;2023-12-20T03:42:22;2.23;;;0.87;;
71464;SDS011;59274;49.874;9.154;2023-12-20T03:44:47;1.70;;;0.80;;
71464;SDS011;59274;49.874;9.154;2023-12-20T03:47:13;2.42;;;1.00;;
71464;SDS011;59274;49.874;9.154;2023-12-20T03:49:38;2.10;;;1.00;;
71464;SDS011;59274;49.874;9.154;2023-12-20T03:52:04;1.97;;;1.10;;
71464;SDS011;59274;49.874;9.154;2023-12-20T03:54:30;1.92;;;1.00;;
71464;SDS011;59274;49.874;9.154;2023-12-20T03:56:55;3.03;;;1.47;;
71464;SDS011;59274;49.874;9.154;2023-12-20T03:59:21;1.73;;;1.10;;
71464;SDS011;59274;49.874;9.154;2023-12-20T04:01:46;1.67;;;0.90;;
71464;SDS011;59274;49.874;9.154;2023-12-20T04:04:12;1.93;;;0.90;;
71464;SDS011;59274;49.874;9.154;2023-12-20T04:06:38;1.98;;;1.10;;
71464;SDS011;59274;49.874;9.154;2023-12-20T04:09:03;1.57;;;0.77;;
71464;SDS011;59274;49.874;9.154;2023-12-20T04:11:29;1.37;;;0.83;;
71464;SDS011;59274;49.874;9.154;2023-12-20T04:13:55;2.30;;;1.05;;
71464;SDS011;59274;49.874;9.154;2023-12-20T04:16:20;2.43;;;1.37;;
71464;SDS011;59274;49.874;9.154;2023-12-20T04:18:46;2.17;;;1.20;;
71464;SDS011;59274;49.874;9.154;2023-12-20T04:21:11;2.67;;;1.20;;
71464;SDS011;59274;49.874;9.154;2023-12-20T04:23:37;2.25;;;1.20;;
71464;SDS011;59274;49.874;9.154;2023-12-20T04:26:02;2.23;;;1.10;;
71464;SDS011;59274;49.874;9.154;2023-12-20T04:28:27;4.00;;;1.53;;
71464;SDS011;59274;49.874;9.154;2023-12-20T04:30:55;3.08;;;1.35;;
71464;SDS011;59274;49.874;9.154;2023-12-20T04:33:21;3.80;;;1.50;;
71464;SDS011;59274;49.874;9.154;2023-12-20T04:35:47;3.90;;;1.60;;
71464;SDS011;59274;49.874;9.154;2023-12-20T04:38:12;4.13;;;1.50;;
71464;SDS011;59274;49.874;9.154;2023-12-20T04:40:37;3.50;;;1.67;;
71464;SDS011;59274;49.874;9.154;2023-12-20T04:43:05;3.53;;;1.60;;
71464;SDS011;59274;49.874;9.154;2023-12-20T04:45:31;3.78;;;1.58;;
71464;SDS011;59274;49.874;9.154;2023-12-20T04:47:56;4.30;;;1.73;;
71464;SDS011;59274;49.874;9.154;2023-12-20T04:50:21;4.33;;;1.63;;
71464;SDS011;59274;49.874;9.154;2023-12-20T04:52:47;4.90;;;2.10;;
71464;SDS011;59274;49.874;9.154;2023-12-20T04:55:12;4.70;;;1.83;;
71464;SDS011;59274;49.874;9.154;2023-12-20T04:57:38;4.33;;;1.80;;
71464;SDS011;59274;49.874;9.154;2023-12-20T05:00:04;8.63;;;3.28;;
71464;SDS011;59274;49.874;9.154;2023-12-20T05:02:36;4.13;;;1.90;;
71464;SDS011;59274;49.874;9.154;2023-12-20T05:05:02;4.60;;;1.75;;
71464;SDS011;59274;49.874;9.154;2023-12-20T05:07:27;4.03;;;1.55;;
71464;SDS011;59274;49.874;9.154;2023-12-20T05:09:52;4.05;;;1.98;;
71464;SDS011;59274;49.874;9.154;2023-12-20T05:12:21;3.70;;;1.90;;
71464;SDS011;59274;49.874;9.154;2023-12-20T05:14:47;4.53;;;1.92;;
71464;SDS011;59274;49.874;9.154;2023-12-20T05:17:12;4.67;;;1.80;;
71464;SDS011;59274;49.874;9.154;2023-12-20T05:19:38;4.97;;;2.40;;
71464;SDS011;59274;49.874;9.154;2023-12-20T05:22:03;4.68;;;2.20;;
71464;SDS011;59274;49.874;9.154;2023-12-20T05:24:29;8.17;;;2.70;;
71464;SDS011;59274;49.874;9.154;2023-12-20T05:26:54;4.17;;;1.90;;
71464;SDS011;59274;49.874;9.154;2023-12-20T05:29:20;4.72;;;2.20;;
71464;SDS011;59274;49.874;9.154;2023-12-20T05:31:45;4.60;;;2.00;;
71464;SDS011;59274;49.874;9.154;2023-12-20T05:34:11;3.60;;;1.90;;
71464;SDS011;59274;49.874;9.154;2023-12-20T05:36:36;5.32;;;2.17;;
71464;SDS011;59274;49.874;9.154;2023-12-20T05:39:02;4.03;;;1.80;;
71464;SDS011;59274;49.874;9.154;2023-12-20T05:41:32;4.53;;;2.03;;
71464;SDS011;59274;49.874;9.154;2023-12-20T05:43:58;5.35;;;2.20;;
71464;SDS011;59274;49.874;9.154;2023-12-20T05:46:24;4.70;;;2.30;;
71464;SDS011;59274;49.874;9.154;2023-12-20T05:48:50;4.80;;;2.20;;
71464;SDS011;59274;49.874;9.154;2023-12-20T05:51:16;4.18;;;1.90;;
71464;SDS011;59274;49.874;9.154;2023-12-20T05:53:42;5.32;;;2.40;;
71464;SDS011;59274;49.874;9.154;2023-12-20T05:56:07;3.70;;;1.73;;
71464;SDS011;59274;49.874;9.154;2023-12-20T05:58:33;5.03;;;2.10;;
71464;SDS011;59274;49.874;9.154;2023-12-20T06:00:58;4.07;;;1.88;;
71464;SDS011;59274;49.874;9.154;2023-12-20T06:03:24;4.80;;;1.90;;
71464;SDS011;59274;49.874;9.154;2023-12-20T06:05:49;4.13;;;1.97;;
71464;SDS011;59274;49.874;9.154;2023-12-20T06:08:15;4.57;;;1.80;;
71464;SDS011;59274;49.874;9.154;2023-12-20T06:10:44;3.95;;;1.60;;
71464;SDS011;59274;49.874;9.154;2023-12-20T06:13:09;3.75;;;1.45;;
71464;SDS011;59274;49.874;9.154;2023-12-20T06:15:35;4.30;;;1.60;;
71464;SDS011;59274;49.874;9.154;2023-12-20T06:18:00;3.57;;;1.60;;
71464;SDS011;59274;49.874;9.154;2023-12-20T06:20:26;5.10;;;1.75;;
71464;SDS011;59274;49.874;9.154;2023-12-20T06:22:52;5.80;;;1.53;;
71464;SDS011;59274;49.874;9.154;2023-12-20T06:25:20;3.78;;;1.50;;
71464;SDS011;59274;49.874;9.154;2023-12-20T06:27:46;3.63;;;1.40;;
71464;SDS011;59274;49.874;9.154;2023-12-20T06:30:12;5.22;;;1.25;;
71464;SDS011;59274;49.874;9.154;2023-12-20T06:32:37;5.53;;;1.50;;
71464;SDS011;59274;49.874;9.154;2023-12-20T06:35:04;2.38;;;1.17;;
71464;SDS011;59274;49.874;9.154;2023-12-20T06:37:30;6.97;;;1.40;;
71464;SDS011;59274;49.874;9.154;2023-12-20T06:39:56;6.33;;;1.40;;
71464;SDS011;59274;49.874;9.154;2023-12-20T06:42:22;4.00;;;1.30;;
71464;SDS011;59274;49.874;9.154;2023-12-20T06:44:47;5.38;;;1.45;;
71464;SDS011;59274;49.874;9.154;2023-12-20T06:47:13;3.38;;;1.20;;
71464;SDS011;59274;49.874;9.154;2023-12-20T06:49:39;3.58;;;1.40;;
71464;SDS011;59274;49.874;9.154;2023-12-20T06:52:05;3.17;;;1.30;;
71464;SDS011;59274;49.874;9.154;2023-12-20T06:54:31;7.85;;;1.73;;
71464;SDS011;59274;49.874;9.154;2023-12-20T06:56:59;4.70;;;1.55;;
71464;SDS011;59274;49.874;9.154;2023-12-20T06:59:24;5.33;;;1.67;;
71464;SDS011;59274;49.874;9.154;2023-12-20T07:01:53;7.80;;;1.75;;
71464;SDS011;59274;49.874;9.154;2023-12-20T07:04:19;3.83;;;1.30;;
71464;SDS011;59274;49.874;9.154;2023-12-20T07:06:47;4.60;;;1.55;;
71464;SDS011;59274;49.874;9.154;2023-12-20T07:09:13;3.20;;;1.50;;
71464;SDS011;59274;49.874;9.154;2023-12-20T07:11:39;3.10;;;1.33;;
71464;SDS011;59274;49.874;9.154;2023-12-20T07:14:05;4.47;;;1.60;;
71464;SDS011;59274;49.874;9.154;2023-12-20T07:16:30;5.73;;;1.57;;
71464;SDS011;59274;49.874;9.154;2023-12-20T07:18:56;4.05;;;1.30;;
71464;SDS011;59274;49.874;9.154;2023-12-20T07:21:22;3.23;;;1.30;;
71464;SDS011;59274;49.874;9.154;2023-12-20T07:23:47;4.03;;;1.30;;
71464;SDS011;59274;49.874;9.154;2023-12-20T07:26:16;4.88;;;1.40;;
71464;SDS011;59274;49.874;9.154;2023-12-20T07:28:42;4.97;;;1.38;;
71464;SDS011;59274;49.874;9.154;2023-12-20T07:31:08;5.25;;;1.40;;
71464;SDS011;59274;49.874;9.154;2023-12-20T07:33:33;3.40;;;1.47;;
71464;SDS011;59274;49.874;9.154;2023-12-20T07:35:59;3.87;;;1.47;;
71464;SDS011;59274;49.874;9.154;2023-12-20T07:38:25;4.78;;;1.40;;
71464;SDS011;59274;49.874;9.154;2023-12-20T07:40:51;6.73;;;1.70;;
71464;SDS011;59274;49.874;9.154;2023-12-20T07:43:16;4.97;;;1.50;;
71464;SDS011;59274;49.874;9.154;2023-12-20T07:45:42;4.43;;;1.60;;
71464;SDS011;59274;49.874;9.154;2023-12-20T07:48:07;5.03;;;1.70;;
71464;SDS011;59274;49.874;9.154;2023-12-20T07:50:33;5.37;;;1.20;;
71464;SDS011;59274;49.874;9.154;2023-12-20T07:52:59;3.55;;;1.70;;
71464;SDS011;59274;49.874;9.154;2023-12-20T07:55:25;3.83;;;1.63;;
71464;SDS011;59274;49.874;9.154;2023-12-20T07:57:51;6.13;;;1.50;;
71464;SDS011;59274;49.874;9.154;2023-12-20T08:00:17;8.43;;;1.60;;
71464;SDS011;59274;49.874;9.154;2023-12-20T08:02:42;6.00;;;1.67;;
71464;SDS011;59274;49.874;9.154;2023-12-20T08:05:08;5.03;;;1.63;;
71464;SDS011;59274;49.874;9.154;2023-12-20T08:07:34;3.92;;;1.35;;
71464;SDS011;59274;49.874;9.154;2023-12-20T08:09:59;5.47;;;1.57;;
71464;SDS011;59274;49.874;9.154;2023-12-20T08:12:25;4.60;;;1.53;;
71464;SDS011;59274;49.874;9.154;2023-12-20T08:14:52;5.72;;;1.60;;
71464;SDS011;59274;49.874;9.154;2023-12-20T08:17:19;3.55;;;1.25;;
71464;SDS011;59274;49.874;9.154;2023-12-20T08:19:44;4.50;;;1.60;;
71464;SDS011;59274;49.874;9.154;2023-12-20T08:22:09;3.50;;;1.30;;
71464;SDS011;59274;49.874;9.154;2023-12-20T08:24:36;5.43;;;1.50;;
71464;SDS011;59274;49.874;9.154;2023-12-20T08:27:02;5.47;;;1.27;;
71464;SDS011;59274;49.874;9.154;2023-12-20T08:29:27;3.05;;;1.23;;
71464;SDS011;59274;49.874;9.154;2023-12-20T08:31:53;6.60;;;2.03;;
71464;SDS011;59274;49.874;9.154;2023-12-20T08:34:19;3.17;;;1.42;;
71464;SDS011;59274;49.874;9.154;2023-12-20T08:36:45;6.03;;;1.27;;
71464;SDS011;59274;49.874;9.154;2023-12-20T08:39:10;5.10;;;1.48;;
71464;SDS011;59274;49.874;9.154;2023-12-20T08:41:35;4.57;;;1.33;;
71464;SDS011;59274;49.874;9.154;2023-12-20T08:44:02;5.70;;;1.40;;
71464;SDS011;59274;49.874;9.154;2023-12-20T08:46:28;4.25;;;1.30;;
71464;SDS011;59274;49.874;9.154;2023-12-20T08:48:54;4.68;;;1.30;;
71464;SDS011;59274;49.874;9.154;2023-12-20T08:51:19;6.25;;;1.58;;
71464;SDS011;59274;49.874;9.154;2023-12-20T08:53:46;6.57;;;1.37;;
71464;SDS011;59274;49.874;9.154;2023-12-20T08:56:12;3.78;;;1.23;;
71464;SDS011;59274;49.874;9.154;2023-12-20T08:58:38;4.82;;;1.30;;
71464;SDS011;59274;49.874;9.154;2023-12-20T09:01:03;4.57;;;1.30;;
71464;SDS011;59274;49.874;9.154;2023-12-20T09:03:29;6.17;;;1.30;;
71464;SDS011;59274;49.874;9.154;2023-12-20T09:05:54;6.17;;;1.50;;
71464;SDS011;59274;49.874;9.154;2023-12-20T09:08:19;9.00;;;1.70;;
71464;SDS011;59274;49.874;9.154;2023-12-20T09:10:45;6.57;;;1.33;;
71464;SDS011;59274;49.874;9.154;2023-12-20T09:13:11;6.70;;;1.60;;
71464;SDS011;59274;49.874;9.154;2023-12-20T09:15:36;4.23;;;1.40;;
71464;SDS011;59274;49.874;9.154;2023-12-20T09:18:02;6.20;;;2.70;;
71464;SDS011;59274;49.874;9.154;2023-12-20T09:20:27;8.70;;;2.58;;
71464;SDS011;59274;49.874;9.154;2023-12-20T09:22:53;6.87;;;2.00;;
71464;SDS011;59274;49.874;9.154;2023-12-20T09:25:21;8.40;;;2.50;;
71464;SDS011;59274;49.874;9.154;2023-12-20T09:27:48;7.87;;;1.70;;
71464;SDS011;59274;49.874;9.154;2023-12-20T09:30:13;5.30;;;1.52;;
71464;SDS011;59274;49.874;9.154;2023-12-20T09:32:42;9.97;;;3.20;;
71464;SDS011;59274;49.874;9.154;2023-12-20T09:35:08;10.00;;;2.53;;
71464;SDS011;59274;49.874;9.154;2023-12-20T09:37:34;9.60;;;2.97;;
71464;SDS011;59274;49.874;9.154;2023-12-20T09:39:59;12.10;;;5.23;;
71464;SDS011;59274;49.874;9.154;2023-12-20T09:42:29;7.63;;;2.03;;
71464;SDS011;59274;49.874;9.154;2023-12-20T09:45:03;6.07;;;1.50;;
71464;SDS011;59274;49.874;9.154;2023-12-20T09:47:33;5.63;;;1.40;;
71464;SDS011;59274;49.874;9.154;2023-12-20T09:49:59;6.15;;;1.50;;
71464;SDS011;59274;49.874;9.154;2023-12-20T09:52:25;6.93;;;1.90;;
71464;SDS011;59274;49.874;9.154;2023-12-20T09:54:51;7.93;;;2.20;;
71464;SDS011;59274;49.874;9.154;2023-12-20T09:57:18;5.25;;;1.77;;
71464;SDS011;59274;49.874;9.154;2023-12-20T09:59:43;6.30;;;1.53;;
71464;SDS011;59274;49.874;9.154;2023-12-20T10:02:11;6.22;;;2.17;;
71464;SDS011;59274;49.874;9.154;2023-12-20T10:04:39;5.45;;;2.25;;
71464;SDS011;59274;49.874;9.154;2023-12-20T10:07:11;7.57;;;2.63;;
71464;SDS011;59274;49.874;9.154;2023-12-20T10:09:37;6.53;;;2.10;;
71464;SDS011;59274;49.874;9.154;2023-12-20T10:12:03;7.65;;;1.65;;
71464;SDS011;59274;49.874;9.154;2023-12-20T10:14:30;5.40;;;1.60;;
71464;SDS011;59274;49.874;9.154;2023-12-20T10:17:03;5.45;;;1.50;;
71464;SDS011;59274;49.874;9.154;2023-12-20T10:19:29;6.83;;;1.80;;
71464;SDS011;59274;49.874;9.154;2023-12-20T10:21:55;5.55;;;2.28;;
71464;SDS011;59274;49.874;9.154;2023-12-20T10:24:20;6.57;;;1.90;;
71464;SDS011;59274;49.874;9.154;2023-12-20T10:26:46;6.20;;;1.60;;
71464;SDS011;59274;49.874;9.154;2023-12-20T10:29:11;4.00;;;1.43;;
71464;SDS011;59274;49.874;9.154;2023-12-20T10:31:37;3.63;;;1.33;;
71464;SDS011;59274;49.874;9.154;2023-12-20T10:34:04;7.85;;;2.03;;
71464;SDS011;59274;49.874;9.154;2023-12-20T10:36:30;7.47;;;1.60;;
71464;SDS011;59274;49.874;9.154;2023-12-20T10:38:57;5.90;;;1.42;;
71464;SDS011;59274;49.874;9.154;2023-12-20T10:41:27;3.53;;;1.13;;
71464;SDS011;59274;49.874;9.154;2023-12-20T10:43:58;4.88;;;1.17;;
71464;SDS011;59274;49.874;9.154;2023-12-20T10:46:25;5.13;;;1.80;;
71464;SDS011;59274;49.874;9.154;2023-12-20T10:48:53;5.80;;;1.55;;
71464;SDS011;59274;49.874;9.154;2023-12-20T10:51:19;9.05;;;1.48;;
71464;SDS011;59274;49.874;9.154;2023-12-20T10:53:46;11.70;;;1.60;;
71464;SDS011;59274;49.874;9.154;2023-12-20T10:56:13;6.45;;;1.75;;
71464;SDS011;59274;49.874;9.154;2023-12-20T10:58:42;4.75;;;1.23;;
71464;SDS011;59274;49.874;9.154;2023-12-20T11:01:08;8.07;;;2.97;;
71464;SDS011;59274;49.874;9.154;2023-12-20T11:03:34;6.00;;;1.63;;
71464;SDS011;59274;49.874;9.154;2023-12-20T11:06:50;4.75;;;1.50;;
71464;SDS011;59274;49.874;9.154;2023-12-20T11:14:28;6.97;;;1.60;;
71464;SDS011;59274;49.874;9.154;2023-12-20T11:17:06;8.00;;;2.03;;
71464;SDS011;59274;49.874;9.154;2023-12-20T11:19:38;6.72;;;1.42;;
71464;SDS011;59274;49.874;9.154;2023-12-20T11:22:24;5.82;;;1.55;;
71464;SDS011;59274;49.874;9.154;2023-12-20T11:24:51;9.32;;;1.50;;
71464;SDS011;59274;49.874;9.154;2023-12-20T11:27:18;5.23;;;1.30;;
71464;SDS011;59274;49.874;9.154;2023-12-20T11:29:54;5.47;;;1.50;;
71464;SDS011;59274;49.874;9.154;2023-12-20T11:34:53;4.13;;;1.40;;
71464;SDS011;59274;49.874;9.154;2023-12-20T11:37:20;7.47;;;1.70;;
71464;SDS011;59274;49.874;9.154;2023-12-20T11:39:59;5.60;;;1.60;;
71464;SDS011;59274;49.874;9.154;2023-12-20T11:42:50;4.65;;;1.30;;
71464;SDS011;59274;49.874;9.154;2023-12-20T11:45:18;4.53;;;1.25;;
71464;SDS011;59274;49.874;9.154;2023-12-20T11:47:47;12.70;;;2.00;;
71464;SDS011;59274;49.874;9.154;2023-12-20T11:50:16;6.43;;;2.00;;
71464;SDS011;59274;49.874;9.154;2023-12-20T11:52:42;3.60;;;1.20;;
71464;SDS011;59274;49.874;9.154;2023-12-20T11:55:08;5.95;;;1.55;;
71464;SDS011;59274;49.874;9.154;2023-12-20T11:57:33;4.07;;;1.30;;
71464;SDS011;59274;49.874;9.154;2023-12-20T11:59:59;7.35;;;1.55;;
71464;SDS011;59274;49.874;9.154;2023-12-20T12:02:25;6.53;;;1.40;;
71464;SDS011;59274;49.874;9.154;2023-12-20T12:04:50;4.80;;;1.60;;
71464;SDS011;59274;49.874;9.154;2023-12-20T12:07:16;6.82;;;1.75;;
71464;SDS011;59274;49.874;9.154;2023-12-20T12:09:42;6.00;;;1.30;;
71464;SDS011;59274;49.874;9.154;2023-12-20T12:12:08;9.48;;;2.90;;
71464;SDS011;59274;49.874;9.154;2023-12-20T12:14:33;6.40;;;1.42;;
71464;SDS011;59274;49.874;9.154;2023-12-20T12:17:01;5.28;;;1.70;;
71464;SDS011;59274;49.874;9.154;2023-12-20T12:19:29;8.85;;;1.67;;
71464;SDS011;59274;49.874;9.154;2023-12-20T12:27:11;8.40;;;1.70;;
71464;SDS011;59274;49.874;9.154;2023-12-20T12:29:38;4.55;;;1.48;;
71464;SDS011;59274;49.874;9.154;2023-12-20T12:32:04;6.55;;;1.63;;
71464;SDS011;59274;49.874;9.154;2023-12-20T12:34:32;7.53;;;1.60;;
71464;SDS011;59274;49.874;9.154;2023-12-20T12:36:59;5.50;;;1.90;;
71464;SDS011;59274;49.874;9.154;2023-12-20T12:39:24;7.50;;;1.70;;
71464;SDS011;59274;49.874;9.154;2023-12-20T12:41:50;8.38;;;2.08;;
71464;SDS011;59274;49.874;9.154;2023-12-20T12:44:16;8.43;;;2.00;;
71464;SDS011;59274;49.874;9.154;2023-12-20T12:46:43;5.57;;;1.60;;
71464;SDS011;59274;49.874;9.154;2023-12-20T12:49:11;7.63;;;1.80;;
71464;SDS011;59274;49.874;9.154;2023-12-20T12:51:37;5.50;;;1.60;;
71464;SDS011;59274;49.874;9.154;2023-12-20T12:54:02;4.87;;;1.60;;
71464;SDS011;59274;49.874;9.154;2023-12-20T12:56:28;9.48;;;2.08;;
71464;SDS011;59274;49.874;9.154;2023-12-20T12:58:54;7.17;;;1.70;;
71464;SDS011;59274;49.874;9.154;2023-12-20T13:01:20;5.65;;;1.55;;
71464;SDS011;59274;49.874;9.154;2023-12-20T13:03:46;10.00;;;1.80;;
71464;SDS011;59274;49.874;9.154;2023-12-20T13:06:12;5.90;;;1.50;;
71464;SDS011;59274;49.874;9.154;2023-12-20T13:08:38;6.60;;;1.30;;
71464;SDS011;59274;49.874;9.154;2023-12-20T13:11:03;7.90;;;2.00;;
71464;SDS011;59274;49.874;9.154;2023-12-20T13:13:29;5.07;;;1.50;;
71464;SDS011;59274;49.874;9.154;2023-12-20T13:15:55;8.57;;;1.58;;
71464;SDS011;59274;49.874;9.154;2023-12-20T13:18:22;5.10;;;1.53;;
71464;SDS011;59274;49.874;9.154;2023-12-20T13:20:48;7.53;;;1.65;;
71464;SDS011;59274;49.874;9.154;2023-12-20T13:23:14;8.55;;;1.83;;
71464;SDS011;59274;49.874;9.154;2023-12-20T13:25:40;5.93;;;1.50;;
71464;SDS011;59274;49.874;9.154;2023-12-20T13:28:06;7.10;;;1.80;;
71464;SDS011;59274;49.874;9.154;2023-12-20T13:30:33;6.53;;;1.50;;
71464;SDS011;59274;49.874;9.154;2023-12-20T13:32:59;8.10;;;1.90;;
71464;SDS011;59274;49.874;9.154;2023-12-20T13:35:24;7.93;;;2.20;;
71464;SDS011;59274;49.874;9.154;2023-12-20T13:37:50;8.83;;;1.90;;
71464;SDS011;59274;49.874;9.154;2023-12-20T13:40:15;8.53;;;1.90;;
71464;SDS011;59274;49.874;9.154;2023-12-20T13:42:41;12.37;;;2.30;;
71464;SDS011;59274;49.874;9.154;2023-12-20T13:45:07;7.25;;;1.92;;
71464;SDS011;59274;49.874;9.154;2023-12-20T13:47:33;5.47;;;1.97;;
71464;SDS011;59274;49.874;9.154;2023-12-20T13:49:59;6.38;;;1.83;;
71464;SDS011;59274;49.874;9.154;2023-12-20T13:52:24;5.60;;;2.00;;
71464;SDS011;59274;49.874;9.154;2023-12-20T13:54:50;6.97;;;2.25;;
71464;SDS011;59274;49.874;9.154;2023-12-20T13:57:15;8.87;;;1.93;;
71464;SDS011;59274;49.874;9.154;2023-12-20T13:59:40;7.50;;;2.30;;
71464;SDS011;59274;49.874;9.154;2023-12-20T14:02:06;8.50;;;2.00;;
71464;SDS011;59274;49.874;9.154;2023-12-20T14:04:32;6.60;;;1.75;;
71464;SDS011;59274;49.874;9.154;2023-12-20T14:06:57;6.27;;;2.10;;
71464;SDS011;59274;49.874;9.154;2023-12-20T14:09:23;8.50;;;2.00;;
71464;SDS011;59274;49.874;9.154;2023-12-20T14:11:48;9.25;;;2.10;;
71464;SDS011;59274;49.874;9.154;2023-12-20T14:14:14;5.53;;;1.97;;
71464;SDS011;59274;49.874;9.154;2023-12-20T14:16:39;8.80;;;2.10;;
71464;SDS011;59274;49.874;9.154;2023-12-20T14:19:04;8.13;;;1.93;;
71464;SDS011;59274;49.874;9.154;2023-12-20T14:21:32;7.35;;;1.98;;
71464;SDS011;59274;49.874;9.154;2023-12-20T14:23:58;6.22;;;1.80;;
71464;SDS011;59274;49.874;9.154;2023-12-20T14:26:24;8.77;;;2.50;;
71464;SDS011;59274;49.874;9.154;2023-12-20T14:28:49;7.33;;;2.20;;
71464;SDS011;59274;49.874;9.154;2023-12-20T14:31:14;8.30;;;2.03;;
71464;SDS011;59274;49.874;9.154;2023-12-20T14:33:40;5.78;;;1.80;;
71464;SDS011;59274;49.874;9.154;2023-12-20T14:36:07;7.03;;;2.50;;
71464;SDS011;59274;49.874;9.154;2023-12-20T14:38:33;8.95;;;2.47;;
71464;SDS011;59274;49.874;9.154;2023-12-20T14:40:58;7.43;;;2.17;;
71464;SDS011;59274;49.874;9.154;2023-12-20T14:43:24;8.82;;;2.33;;
71464;SDS011;59274;49.874;9.154;2023-12-20T14:45:51;10.88;;;2.05;;
71464;SDS011;59274;49.874;9.154;2023-12-20T14:48:17;8.50;;;2.72;;
71464;SDS011;59274;49.874;9.154;2023-12-20T14:50:43;11.87;;;3.03;;
71464;SDS011;59274;49.874;9.154;2023-12-20T14:53:09;5.30;;;1.48;;
71464;SDS011;59274;49.874;9.154;2023-12-20T14:55:35;5.20;;;1.80;;